Time,TemperatureF,DewpointF,PressureIn,WindDirection,WindDirectionDegrees,WindSpeedMPH,WindSpeedGustMPH,Humidity,HourlyPrecipIn,Conditions,Clouds,dailyrainin,SoftwareType,DateUTC
2013-11-23 00:00:00,18.0,-1.0,-100.00,WSW,258,4.0,7.0,42,0.00,,,0.09,,2013-11-23 07:00:00,
2013-11-23 00:42:00,18.0,-1.0,-100.00,WSW,258,4.0,7.0,42,0.00,,,0.09,,2013-11-23 07:42:00,
2013-11-23 00:52:00,18.0,-1.0,-100.00,WSW,258,4.0,7.0,42,0.00,,,0.09,,2013-11-23 07:52:00,
2013-11-23 01:00:00,19.0,-2.0,-100.00,WSW,249,11.0,14.0,40,0.00,,,0.09,,2013-11-23 08:00:00,
2013-11-23 01:52:00,19.0,-2.0,-100.00,WSW,249,11.0,14.0,40,0.00,,,0.09,,2013-11-23 08:52:00,
2013-11-23 08:00:00,21.0,0.0,-100.00,West,259,10.0,13.0,39,0.00,,,0.09,,2013-11-23 15:00:00,
2013-11-23 08:54:00,21.0,0.0,-100.00,West,259,10.0,13.0,39,0.00,,,0.09,,2013-11-23 15:54:00,
2013-11-23 10:00:00,27.0,5.0,-100.00,SE,139,1.0,1.0,38,0.00,,,0.09,,2013-11-23 17:00:00,
2013-11-23 10:42:00,27.0,5.0,-100.00,SE,139,1.0,1.0,38,0.00,,,0.09,,2013-11-23 17:42:00,
2013-11-23 10:52:00,27.0,5.0,-100.00,SE,139,1.0,1.0,38,0.00,,,0.09,,2013-11-23 17:52:00,
2013-11-23 12:00:00,28.0,7.0,-100.00,NE,50,3.0,4.0,40,0.00,,,0.01,,2013-11-23 19:00:00,
2013-11-23 12:42:00,28.0,7.0,-100.00,NE,50,3.0,4.0,40,0.00,,,0.01,,2013-11-23 19:42:00,
2013-11-23 12:52:00,28.0,7.0,-100.00,NE,50,3.0,4.0,40,0.00,,,0.01,,2013-11-23 19:52:00,
2013-11-23 13:00:00,34.0,4.0,-100.00,East,82,2.0,3.0,28,0.00,,,0.00,,2013-11-23 20:00:00,
2013-11-23 13:42:00,34.0,4.0,-100.00,East,82,2.0,3.0,28,0.00,,,0.00,,2013-11-23 20:42:00,
2013-11-23 13:52:00,34.0,4.0,-100.00,East,82,2.0,3.0,28,0.00,,,0.00,,2013-11-23 20:52:00,
2013-11-23 14:00:00,28.0,9.0,-100.00,ENE,67,3.0,4.0,43,0.00,,,0.00,,2013-11-23 21:00:00,
2013-11-23 14:43:00,28.0,9.0,-100.00,ENE,67,3.0,4.0,43,0.00,,,0.00,,2013-11-23 21:43:00,
2013-11-23 14:53:00,28.0,9.0,-100.00,ENE,67,3.0,4.0,43,0.00,,,0.00,,2013-11-23 21:53:00,
2013-11-23 15:00:00,28.0,10.0,-100.00,East,98,1.0,2.0,45,0.00,,,0.00,,2013-11-23 22:00:00,
2013-11-23 15:43:00,28.0,10.0,-100.00,East,98,1.0,2.0,45,0.00,,,0.00,,2013-11-23 22:43:00,
2013-11-23 15:53:00,28.0,10.0,-100.00,East,98,1.0,2.0,45,0.00,,,0.00,,2013-11-23 22:53:00,
2013-11-23 16:00:00,25.0,10.0,-100.00,SW,228,1.0,2.0,53,0.00,,,0.00,,2013-11-23 23:00:00,
2013-11-23 16:42:00,25.0,10.0,-100.00,SW,228,1.0,2.0,53,0.00,,,0.00,,2013-11-23 23:42:00,
2013-11-23 16:53:00,25.0,10.0,-100.00,SW,228,1.0,2.0,53,0.00,,,0.00,,2013-11-23 23:53:00,
2013-11-23 17:00:00,24.0,6.0,-100.00,WSW,240,4.0,6.0,46,0.00,,,0.00,,2013-11-24 00:00:00,
2013-11-23 17:52:00,24.0,6.0,-100.00,WSW,240,4.0,6.0,46,0.00,,,0.00,,2013-11-24 00:52:00,
2013-11-23 18:00:00,28.0,3.0,-100.00,WSW,249,12.0,17.0,34,0.00,,,0.00,,2013-11-24 01:00:00,
2013-11-23 18:42:00,28.0,3.0,-100.00,WSW,249,12.0,17.0,34,0.00,,,0.00,,2013-11-24 01:42:00,
2013-11-23 18:52:00,28.0,3.0,-100.00,WSW,249,12.0,17.0,34,0.00,,,0.00,,2013-11-24 01:52:00,
2013-11-23 19:00:00,26.0,1.0,-100.00,West,263,12.0,18.0,34,0.00,,,0.00,,2013-11-24 02:00:00,
2013-11-23 19:42:00,26.0,1.0,-100.00,West,263,12.0,18.0,34,0.00,,,0.00,,2013-11-24 02:42:00,
2013-11-23 19:52:00,26.0,1.0,-100.00,West,263,12.0,18.0,34,0.00,,,0.00,,2013-11-24 02:52:00,
2013-11-23 20:00:00,-999.0,-99.9,-100.00,West,273,14.0,18.0,35,0.00,,,0.00,,2013-11-24 03:00:00,
2013-11-23 20:43:00,24.0,0.0,-100.00,West,273,14.0,18.0,35,0.00,,,0.00,,2013-11-24 03:43:00,
2013-11-23 20:53:00,24.0,0.0,-100.00,West,273,14.0,18.0,35,0.00,,,0.00,,2013-11-24 03:53:00,
2013-11-23 21:00:00,25.0,-1.0,-100.00,West,270,15.0,19.0,32,0.00,,,0.00,,2013-11-24 04:00:00,
2013-11-23 21:42:00,25.0,-1.0,-100.00,West,270,15.0,19.0,32,0.00,,,0.00,,2013-11-24 04:42:00,
2013-11-23 21:53:00,25.0,-1.0,-100.00,West,270,15.0,19.0,32,0.00,,,0.00,,2013-11-24 04:53:00,
2013-11-23 22:00:00,24.0,-2.0,-100.00,West,265,15.0,21.0,31,0.00,,,0.00,,2013-11-24 05:00:00,
2013-11-23 22:43:00,24.0,-2.0,-100.00,West,265,15.0,21.0,31,0.00,,,0.00,,2013-11-24 05:43:00,
2013-11-23 22:53:00,24.0,-2.0,-100.00,West,265,15.0,21.0,31,0.00,,,0.00,,2013-11-24 05:53:00,
2013-11-23 23:00:00,24.0,-4.0,-100.00,West,267,16.0,23.0,29,0.00,,,0.00,,2013-11-24 06:00:00,
2013-11-23 23:52:00,24.0,-4.0,-100.00,West,267,16.0,23.0,29,0.00,,,0.00,,2013-11-24 06:52:00,